Sturdies Bay, Canada
Current Conditions -  °F | °C
As of 11:00 AM on Saturday 20 Dec 2014 (Local Time) from CYYJ Reporting Station
Light Rain Light Rain  
Wind Chill: 41°   Ceiling: 1800
Heat Index: 48°   Visibility: 15mi
Dew Point: 43°   Wind: 21mph
Humidity: 82%   Direction: 120°ESE
Pressure: 29.52"   Gusts: NA
Location:  48.88°N, 123.32°W
Report Text: CYYJ 201900Z 12018KT 15SM -RA FEW014 BKN018 OVC030 09/06 A2952 RMK SC1SC5SC3 SC TR SLP998
Loading
Personal Weather Stations






























Interactive Weather Map New forecast layout! Learn more

10-Day Weather Forecast

Advertisements
Track Severe Weather on mobile